Terminal Aerodrome Forecast
Issued by NWS Wilmington, NC

Home | Current Version | Previous Version | Text Only | Print | Product List | Glossary On
Versions: 1 2 3 4 5 6 7 8 9 10 11 12 13 14 15 16 17 18
000
FTUS42 KILM 010918 AAA
TAFLBT
TAF AMD
KLBT 010918Z 0109/0206 00000KT 2SM BR SCT004
      TEMPO 0110/0112 1/2SM FG BKN003
     FM011300 02004KT P6SM BKN060
     FM011900 25004KT P6SM SCT100 SCT250
     FM020000 VRB03KT P6SM FEW250=

USA.gov is the U.S. government's official web portal to all federal, state and local government web resources and services.